Time;durP1;ratioP1;P1;durP2;ratioP2;P2;SDS_P1;SDS_P2;PMS_P1;PMS_P2;Temp;Humidity;BMP_temperature;BMP_pressure;BME280_temperature;BME280_humidity;BME280_pressure;Samples;Min_cycle;Max_cycle;Signal;HPM_P1;HPM_P2
2023/03/28 00:01:37;;;;;;;8.48;4.38;;;;;;;;;;4962751;28;20030;-73
2023/03/28 00:04:23;;;;;;;7.68;4.57;;;;;;;;;;4962244;28;20018;-72
2023/03/28 00:07:09;;;;;;;6.40;4.40;;;;;;;;;;4978247;28;20113;-73
2023/03/28 00:09:56;;;;;;;5.88;4.22;;;;;;;;;;4977276;28;20101;-73
2023/03/28 00:12:42;;;;;;;7.63;3.90;;;;;;;;;;4977918;28;20026;-73
2023/03/28 00:15:28;;;;;;;6.18;4.30;;;;;;;;;;4963898;28;20340;-73
2023/03/28 00:18:14;;;;;;;6.13;4.38;;;;;;;;;;4977746;28;20458;-72
2023/03/28 00:20:59;;;;;;;6.65;4.25;;;;;;;;;;4977571;28;20111;-73
2023/03/28 00:23:45;;;;;;;8.52;4.68;;;;;;;;;;4976728;28;20050;-73
2023/03/28 00:26:32;;;;;;;5.22;3.85;;;;;;;;;;4977202;28;20109;-73
2023/03/28 00:29:20;;;;;;;6.55;3.90;;;;;;;;;;4977242;28;20102;-72
2023/03/28 00:32:06;;;;;;;8.52;4.05;;;;;;;;;;4977441;28;20047;-73
2023/03/28 00:34:51;;;;;;;10.50;3.85;;;;;;;;;;4977931;28;20019;-73
2023/03/28 00:37:37;;;;;;;7.68;4.00;;;;;;;;;;4976396;28;20474;-73
2023/03/28 00:40:26;;;;;;;5.32;3.72;;;;;;;;;;4962279;28;20026;-74
2023/03/28 00:43:12;;;;;;;9.32;4.05;;;;;;;;;;4977665;28;20023;-74
2023/03/28 00:45:58;;;;;;;6.13;4.55;;;;;;;;;;4978224;28;20030;-74
2023/03/28 00:48:55;;;;;;;7.20;4.40;;;;;;;;;;4962106;28;20031;-72
2023/03/28 00:51:43;;;;;;;7.10;4.78;;;;;;;;;;4963027;28;20525;-73
2023/03/28 00:54:32;;;;;;;6.32;4.40;;;;;;;;;;4962946;28;20037;-74
2023/03/28 00:57:18;;;;;;;12.32;4.38;;;;;;;;;;4977422;28;20363;-73
2023/03/28 01:00:11;;;;;;;6.72;3.90;;;;;;;;;;4962896;28;20026;-73
2023/03/28 01:02:57;;;;;;;8.15;3.72;;;;;;;;;;4977278;28;20510;-73
2023/03/28 01:05:44;;;;;;;7.68;3.90;;;;;;;;;;4977178;28;20038;-72
2023/03/28 01:08:31;;;;;;;7.78;3.67;;;;;;;;;;4977571;28;20027;-72
2023/03/28 01:11:17;;;;;;;8.05;4.45;;;;;;;;;;4963503;28;20074;-71
2023/03/28 01:14:03;;;;;;;10.48;3.95;;;;;;;;;;4962699;28;20015;-72
2023/03/28 01:16:50;;;;;;;6.68;3.88;;;;;;;;;;4979901;28;20359;-71
2023/03/28 01:19:41;;;;;;;3.92;3.35;;;;;;;;;;4981888;28;20027;-72
2023/03/28 01:22:36;;;;;;;5.35;3.60;;;;;;;;;;4981195;28;20038;-72
2023/03/28 01:25:34;;;;;;;5.70;3.22;;;;;;;;;;4980596;28;20455;-73
2023/03/28 01:28:35;;;;;;;9.93;3.08;;;;;;;;;;4966579;28;20396;-71
2023/03/28 01:31:39;;;;;;;5.32;2.78;;;;;;;;;;4967310;28;20026;-71
2023/03/28 01:34:28;;;;;;;7.72;2.90;;;;;;;;;;4966642;28;20022;-72
2023/03/28 01:37:34;;;;;;;4.32;2.75;;;;;;;;;;4981137;28;20027;-72
2023/03/28 01:40:34;;;;;;;6.40;2.65;;;;;;;;;;4963473;28;20078;-73
2023/03/28 01:43:20;;;;;;;5.65;2.80;;;;;;;;;;4980642;28;20022;-73
2023/03/28 01:46:09;;;;;;;6.18;2.55;;;;;;;;;;4965447;28;20027;-73
2023/03/28 01:49:10;;;;;;;4.85;2.50;;;;;;;;;;4967153;28;20018;-73
2023/03/28 01:52:01;;;;;;;5.88;2.50;;;;;;;;;;4979948;28;20011;-73
2023/03/28 01:54:59;;;;;;;6.47;2.10;;;;;;;;;;4979893;28;20089;-72
2023/03/28 01:57:49;;;;;;;8.57;2.30;;;;;;;;;;4979989;28;20151;-72
2023/03/28 02:00:44;;;;;;;2.65;1.90;;;;;;;;;;4980502;28;20117;-71
2023/03/28 02:03:32;;;;;;;5.07;1.90;;;;;;;;;;4966279;28;20117;-73
2023/03/28 02:06:20;;;;;;;10.35;2.13;;;;;;;;;;4966083;28;20027;-73
2023/03/28 02:09:06;;;;;;;9.52;1.90;;;;;;;;;;4984599;28;20019;-73
2023/03/28 02:11:55;;;;;;;6.10;2.22;;;;;;;;;;4996170;28;20097;-69
2023/03/28 02:14:42;;;;;;;6.72;2.03;;;;;;;;;;4980838;28;20023;-69
2023/03/28 02:17:29;;;;;;;4.88;2.10;;;;;;;;;;4979869;28;20019;-69
2023/03/28 02:20:18;;;;;;;4.18;2.13;;;;;;;;;;4979878;28;20023;-70
2023/03/28 02:23:03;;;;;;;7.18;1.90;;;;;;;;;;4979846;28;20069;-69
2023/03/28 02:25:49;;;;;;;2.88;1.88;;;;;;;;;;4980065;28;20038;-70
2023/03/28 02:28:36;;;;;;;8.00;2.40;;;;;;;;;;4985529;28;20038;-71
2023/03/28 02:31:22;;;;;;;2.80;2.30;;;;;;;;;;4982157;28;20027;-71
2023/03/28 02:34:09;;;;;;;4.25;2.05;;;;;;;;;;4979319;28;20022;-74
2023/03/28 02:37:17;;;;;;;7.90;2.13;;;;;;;;;;4981020;28;20022;-73
2023/03/28 02:40:12;;;;;;;3.00;2.10;;;;;;;;;;4965550;28;20090;-72
2023/03/28 02:43:04;;;;;;;5.63;2.22;;;;;;;;;;4980369;28;20022;-74
2023/03/28 02:45:55;;;;;;;4.07;2.50;;;;;;;;;;4979749;28;20034;-72
2023/03/28 02:48:41;;;;;;;4.10;2.30;;;;;;;;;;4979504;28;20505;-72
2023/03/28 02:51:33;;;;;;;4.18;2.50;;;;;;;;;;4979073;28;20019;-73
2023/03/28 02:54:22;;;;;;;5.85;2.70;;;;;;;;;;4965446;28;20027;-73
2023/03/28 02:57:12;;;;;;;6.60;2.78;;;;;;;;;;4979060;28;20379;-73
2023/03/28 03:00:01;;;;;;;11.10;2.72;;;;;;;;;;4979425;28;20023;-73
2023/03/28 03:02:49;;;;;;;3.67;2.65;;;;;;;;;;4979089;28;20041;-72
2023/03/28 03:05:35;;;;;;;5.47;3.47;;;;;;;;;;4965063;28;20029;-74
2023/03/28 03:08:20;;;;;;;5.90;3.22;;;;;;;;;;4979530;28;20329;-74
2023/03/28 03:11:06;;;;;;;4.10;3.05;;;;;;;;;;4979045;28;20023;-73
2023/03/28 03:13:51;;;;;;;4.25;3.20;;;;;;;;;;4964733;28;20022;-73
2023/03/28 03:16:37;;;;;;;8.07;3.30;;;;;;;;;;4963741;28;20037;-74
2023/03/28 03:19:23;;;;;;;9.40;3.30;;;;;;;;;;4979184;28;20447;-73
2023/03/28 03:22:09;;;;;;;6.68;4.00;;;;;;;;;;4977671;28;20506;-74
2023/03/28 03:24:55;;;;;;;9.77;3.83;;;;;;;;;;4979255;28;20378;-73
2023/03/28 03:27:41;;;;;;;8.15;4.07;;;;;;;;;;4978878;28;20117;-74
2023/03/28 03:30:26;;;;;;;6.28;3.75;;;;;;;;;;4964600;28;20042;-74
2023/03/28 03:33:13;;;;;;;9.75;3.63;;;;;;;;;;4978664;28;20019;-73
2023/03/28 03:35:59;;;;;;;6.65;4.18;;;;;;;;;;4964142;28;20019;-72
2023/03/28 03:38:44;;;;;;;6.05;4.18;;;;;;;;;;4977481;28;20101;-73
2023/03/28 03:41:30;;;;;;;8.70;4.38;;;;;;;;;;4977806;28;20089;-73
2023/03/28 03:44:15;;;;;;;7.00;4.03;;;;;;;;;;4963433;28;20037;-72
2023/03/28 03:47:01;;;;;;;9.57;4.05;;;;;;;;;;4963248;28;20022;-73
2023/03/28 03:49:47;;;;;;;7.75;4.15;;;;;;;;;;4977637;28;20019;-73
2023/03/28 03:52:32;;;;;;;8.35;4.18;;;;;;;;;;4977603;28;20031;-72
2023/03/28 03:55:19;;;;;;;5.93;4.15;;;;;;;;;;4962706;28;20015;-73
2023/03/28 03:58:05;;;;;;;6.03;4.18;;;;;;;;;;4977625;28;20031;-73
2023/03/28 04:00:51;;;;;;;10.30;4.35;;;;;;;;;;4978388;28;20362;-73
2023/03/28 04:03:37;;;;;;;10.00;4.28;;;;;;;;;;4977508;28;20065;-73
2023/03/28 04:06:23;;;;;;;9.90;4.53;;;;;;;;;;4977191;28;20019;-73
2023/03/28 04:09:08;;;;;;;10.13;4.53;;;;;;;;;;4964046;28;20332;-72
2023/03/28 04:11:54;;;;;;;8.15;4.75;;;;;;;;;;4963873;28;20328;-73
2023/03/28 04:14:40;;;;;;;7.25;5.15;;;;;;;;;;4963946;28;20054;-73
2023/03/28 04:17:28;;;;;;;7.05;5.00;;;;;;;;;;4962501;28;20037;-73
2023/03/28 04:20:14;;;;;;;7.72;5.30;;;;;;;;;;4977865;28;20023;-73
2023/03/28 04:23:00;;;;;;;10.15;5.50;;;;;;;;;;4977299;28;20204;-71
2023/03/28 04:25:48;;;;;;;11.82;6.00;;;;;;;;;;4977408;28;20073;-72
2023/03/28 04:28:33;;;;;;;7.53;5.22;;;;;;;;;;4962857;28;20367;-72
2023/03/28 04:31:20;;;;;;;8.10;5.00;;;;;;;;;;4977132;28;20027;-72
2023/03/28 04:34:06;;;;;;;10.20;5.00;;;;;;;;;;4977152;28;20101;-73
2023/03/28 04:36:51;;;;;;;13.88;5.57;;;;;;;;;;4976687;28;20235;-73
2023/03/28 04:39:40;;;;;;;8.02;5.03;;;;;;;;;;4962273;28;20034;-73
2023/03/28 04:42:26;;;;;;;7.68;5.05;;;;;;;;;;4977419;28;20027;-73
2023/03/28 04:45:11;;;;;;;10.18;5.20;;;;;;;;;;4977477;28;20069;-73
2023/03/28 04:47:57;;;;;;;7.40;4.88;;;;;;;;;;4977140;28;20023;-74
2023/03/28 04:50:43;;;;;;;9.50;4.70;;;;;;;;;;4988480;28;20023;-75
2023/03/28 04:53:28;;;;;;;7.63;4.85;;;;;;;;;;4985954;28;20030;-72
2023/03/28 04:56:14;;;;;;;8.05;4.88;;;;;;;;;;4984498;28;20042;-72
2023/03/28 04:58:59;;;;;;;10.52;4.50;;;;;;;;;;4969561;28;20383;-72
2023/03/28 05:01:48;;;;;;;7.90;4.88;;;;;;;;;;4977121;28;20023;-72
2023/03/28 05:04:33;;;;;;;7.78;4.55;;;;;;;;;;4977371;28;20065;-73
2023/03/28 05:07:19;;;;;;;7.85;4.30;;;;;;;;;;4976786;28;20019;-73
2023/03/28 05:10:05;;;;;;;8.13;4.30;;;;;;;;;;4976357;28;20026;-74
2023/03/28 05:12:50;;;;;;;8.73;3.95;;;;;;;;;;4976968;28;20023;-73
2023/03/28 05:15:36;;;;;;;9.63;4.50;;;;;;;;;;4961625;28;20478;-73
2023/03/28 05:18:22;;;;;;;7.65;5.35;;;;;;;;;;4987226;28;20041;-71
2023/03/28 05:21:07;;;;;;;16.27;9.00;;;;;;;;;;4978885;28;20082;-73
2023/03/28 05:23:53;;;;;;;8.32;5.00;;;;;;;;;;4962847;28;20050;-73
2023/03/28 05:26:39;;;;;;;6.15;4.15;;;;;;;;;;4977272;28;20053;-74
2023/03/28 05:29:24;;;;;;;9.40;4.72;;;;;;;;;;4976863;28;20118;-73
2023/03/28 05:32:11;;;;;;;8.25;4.32;;;;;;;;;;4961581;28;20027;-73
2023/03/28 05:34:57;;;;;;;5.03;3.80;;;;;;;;;;4977074;28;20033;-73
2023/03/28 05:37:43;;;;;;;6.45;4.20;;;;;;;;;;4976532;28;20101;-73
2023/03/28 05:40:28;;;;;;;12.45;4.10;;;;;;;;;;4963028;28;20023;-72
2023/03/28 05:43:14;;;;;;;5.50;3.80;;;;;;;;;;4976153;28;20033;-73
2023/03/28 05:45:59;;;;;;;7.13;3.88;;;;;;;;;;4976996;28;20026;-72
2023/03/28 05:48:45;;;;;;;7.30;4.32;;;;;;;;;;4963259;28;20026;-73
2023/03/28 05:51:31;;;;;;;7.50;4.05;;;;;;;;;;4962148;28;20098;-73
2023/03/28 05:54:16;;;;;;;5.82;4.13;;;;;;;;;;4975954;28;20355;-73
2023/03/28 05:57:02;;;;;;;7.80;4.07;;;;;;;;;;4962190;28;20104;-73
2023/03/28 05:59:48;;;;;;;7.07;4.47;;;;;;;;;;4961991;28;20035;-73
2023/03/28 06:02:34;;;;;;;13.00;4.78;;;;;;;;;;4978983;28;20023;-74
2023/03/28 06:05:19;;;;;;;11.43;4.55;;;;;;;;;;4979786;28;20026;-73
2023/03/28 06:08:05;;;;;;;8.30;4.38;;;;;;;;;;4979972;28;20023;-73
2023/03/28 06:10:51;;;;;;;7.68;4.72;;;;;;;;;;4979263;28;20023;-72
2023/03/28 06:13:36;;;;;;;7.28;4.90;;;;;;;;;;4978613;28;20048;-72
2023/03/28 06:16:22;;;;;;;10.30;5.07;;;;;;;;;;4979721;28;20030;-72
2023/03/28 06:19:07;;;;;;;6.30;4.65;;;;;;;;;;4978501;28;20019;-73
2023/03/28 06:21:53;;;;;;;9.25;5.22;;;;;;;;;;4979602;28;20022;-73
2023/03/28 06:24:38;;;;;;;13.48;5.30;;;;;;;;;;4980029;28;20046;-72
2023/03/28 06:27:24;;;;;;;8.38;4.60;;;;;;;;;;4979534;28;20022;-72
2023/03/28 06:30:10;;;;;;;13.05;4.63;;;;;;;;;;4979527;28;20066;-73
2023/03/28 06:32:56;;;;;;;7.30;4.50;;;;;;;;;;4966291;28;20015;-73
2023/03/28 06:35:41;;;;;;;11.60;4.00;;;;;;;;;;4978994;28;20077;-73
2023/03/28 06:38:27;;;;;;;11.52;4.45;;;;;;;;;;4979120;28;20015;-73
2023/03/28 06:41:12;;;;;;;7.22;4.63;;;;;;;;;;4979312;28;20101;-74
2023/03/28 06:43:58;;;;;;;8.23;4.57;;;;;;;;;;4965181;28;20345;-73
2023/03/28 06:46:44;;;;;;;5.40;4.10;;;;;;;;;;4979780;28;20049;-73
2023/03/28 06:49:29;;;;;;;7.80;4.40;;;;;;;;;;4979483;28;20023;-73
2023/03/28 06:52:15;;;;;;;8.75;4.10;;;;;;;;;;4978952;28;20022;-74
2023/03/28 06:55:01;;;;;;;6.53;4.10;;;;;;;;;;4979657;28;20029;-73
2023/03/28 06:57:47;;;;;;;7.25;4.03;;;;;;;;;;4979869;28;20054;-73
2023/03/28 07:00:32;;;;;;;8.00;3.72;;;;;;;;;;4979816;28;20030;-73
2023/03/28 07:03:18;;;;;;;5.78;3.67;;;;;;;;;;4980028;28;20486;-74
2023/03/28 07:06:05;;;;;;;7.28;3.70;;;;;;;;;;4964819;28;20034;-74
2023/03/28 07:08:51;;;;;;;7.63;3.58;;;;;;;;;;4964948;28;20042;-75
2023/03/28 07:11:36;;;;;;;8.35;3.40;;;;;;;;;;4979163;28;20077;-73
2023/03/28 07:14:22;;;;;;;7.30;3.63;;;;;;;;;;4978457;28;20351;-73
2023/03/28 07:17:07;;;;;;;8.82;4.00;;;;;;;;;;4978137;28;20050;-73
2023/03/28 07:19:53;;;;;;;6.97;3.70;;;;;;;;;;4965632;28;20038;-73
2023/03/28 07:22:39;;;;;;;6.95;3.53;;;;;;;;;;4981014;28;20483;-74
2023/03/28 07:25:24;;;;;;;6.68;3.83;;;;;;;;;;4980259;28;20041;-72
2023/03/28 07:28:10;;;;;;;12.25;3.63;;;;;;;;;;4966129;28;20040;-73
2023/03/28 07:30:56;;;;;;;11.35;3.75;;;;;;;;;;4978687;28;20019;-73
2023/03/28 07:33:41;;;;;;;8.80;4.32;;;;;;;;;;4979318;28;20030;-75
2023/03/28 07:36:28;;;;;;;8.23;3.90;;;;;;;;;;4978037;28;20130;-73
2023/03/28 07:39:13;;;;;;;8.05;3.60;;;;;;;;;;4978850;28;20019;-73
2023/03/28 07:41:59;;;;;;;8.57;4.00;;;;;;;;;;4964595;28;20102;-72
2023/03/28 07:44:45;;;;;;;5.70;3.55;;;;;;;;;;4963624;28;20033;-73
2023/03/28 07:47:30;;;;;;;6.05;3.53;;;;;;;;;;4977698;28;20453;-72
2023/03/28 07:50:16;;;;;;;11.23;3.90;;;;;;;;;;4977838;28;20023;-73
2023/03/28 07:53:02;;;;;;;6.78;3.70;;;;;;;;;;4966155;28;20015;-73
2023/03/28 07:55:48;;;;;;;8.30;4.05;;;;;;;;;;4966790;28;20446;-72
2023/03/28 07:58:33;;;;;;;10.38;3.67;;;;;;;;;;4984755;28;20046;-73
2023/03/28 08:01:21;;;;;;;8.85;3.35;;;;;;;;;;4969247;28;20367;-73
2023/03/28 08:04:07;;;;;;;4.68;3.10;;;;;;;;;;4968194;28;20023;-73
2023/03/28 08:06:52;;;;;;;7.18;3.50;;;;;;;;;;4983554;28;20085;-72
2023/03/28 08:09:38;;;;;;;4.75;3.58;;;;;;;;;;4981733;28;20516;-74
2023/03/28 08:12:24;;;;;;;9.15;3.00;;;;;;;;;;4980338;28;20362;-73
2023/03/28 08:15:10;;;;;;;7.63;3.10;;;;;;;;;;4980398;28;20106;-73
2023/03/28 08:17:55;;;;;;;4.28;3.22;;;;;;;;;;4978124;28;20023;-73
2023/03/28 08:20:41;;;;;;;4.00;2.90;;;;;;;;;;4978005;28;20030;-73
2023/03/28 08:23:27;;;;;;;6.03;3.05;;;;;;;;;;4977712;28;20050;-72
2023/03/28 08:26:13;;;;;;;9.88;3.10;;;;;;;;;;4977682;28;20030;-73
2023/03/28 08:28:59;;;;;;;7.82;3.40;;;;;;;;;;4977119;28;20037;-73
2023/03/28 08:31:44;;;;;;;9.70;2.97;;;;;;;;;;4963163;28;20447;-73
2023/03/28 08:34:30;;;;;;;8.25;3.22;;;;;;;;;;4977347;28;20475;-73
2023/03/28 08:37:16;;;;;;;10.85;3.50;;;;;;;;;;4963245;28;20027;-73
2023/03/28 08:40:05;;;;;;;6.60;3.53;;;;;;;;;;4976042;28;20316;-72
2023/03/28 08:42:57;;;;;;;5.68;3.10;;;;;;;;;;4977187;28;20446;-72
2023/03/28 08:45:42;;;;;;;5.78;3.00;;;;;;;;;;4976041;28;20050;-74
2023/03/28 08:48:36;;;;;;;5.40;3.38;;;;;;;;;;4962100;28;20027;-72
2023/03/28 08:51:31;;;;;;;7.63;3.60;;;;;;;;;;4977669;28;20085;-72
2023/03/28 08:54:20;;;;;;;10.25;3.40;;;;;;;;;;4977739;28;20022;-74
2023/03/28 08:57:09;;;;;;;5.10;3.03;;;;;;;;;;4976474;28;20034;-72
2023/03/28 09:00:00;;;;;;;8.10;2.80;;;;;;;;;;4977443;28;20038;-72
2023/03/28 09:02:45;;;;;;;7.53;3.10;;;;;;;;;;4977301;28;20090;-74
2023/03/28 09:05:31;;;;;;;4.45;2.85;;;;;;;;;;4976735;28;20105;-73
2023/03/28 09:08:37;;;;;;;7.18;2.97;;;;;;;;;;4977602;28;20462;-73
2023/03/28 09:11:25;;;;;;;7.32;2.90;;;;;;;;;;4986335;28;20439;-72
2023/03/28 09:14:17;;;;;;;8.40;2.83;;;;;;;;;;4962364;28;20030;-72
2023/03/28 09:17:02;;;;;;;4.82;3.15;;;;;;;;;;4977910;28;20054;-72
2023/03/28 09:19:51;;;;;;;6.13;2.60;;;;;;;;;;4978464;28;20043;-73
2023/03/28 09:22:49;;;;;;;6.88;3.15;;;;;;;;;;4976911;28;20054;-73
2023/03/28 09:25:34;;;;;;;5.03;2.45;;;;;;;;;;4977618;28;20033;-73
2023/03/28 09:28:39;;;;;;;9.75;3.22;;;;;;;;;;4976245;28;20164;-73
2023/03/28 09:31:51;;;;;;;7.10;2.80;;;;;;;;;;4962539;28;20015;-73
2023/03/28 09:34:38;;;;;;;6.60;2.97;;;;;;;;;;4977387;28;20363;-73
2023/03/28 09:37:40;;;;;;;4.75;2.30;;;;;;;;;;4984174;28;20109;-73
2023/03/28 09:40:27;;;;;;;2.90;2.40;;;;;;;;;;4982228;28;20431;-72
2023/03/28 09:43:13;;;;;;;3.28;2.25;;;;;;;;;;4980964;28;20142;-75
2023/03/28 09:46:01;;;;;;;4.57;2.90;;;;;;;;;;4980535;28;20474;-74
2023/03/28 09:48:47;;;;;;;9.07;3.00;;;;;;;;;;4980685;28;20023;-74
2023/03/28 09:51:33;;;;;;;5.72;2.88;;;;;;;;;;4966036;28;20034;-72
2023/03/28 09:54:23;;;;;;;4.43;2.95;;;;;;;;;;4979522;28;20015;-73
2023/03/28 09:57:09;;;;;;;5.43;3.08;;;;;;;;;;4980669;28;20117;-72
2023/03/28 10:00:01;;;;;;;3.15;2.35;;;;;;;;;;4980125;28;20020;-73
2023/03/28 10:02:51;;;;;;;3.42;2.50;;;;;;;;;;4980587;28;20380;-73
2023/03/28 10:05:38;;;;;;;4.85;2.30;;;;;;;;;;4980341;28;20574;-73
2023/03/28 10:08:24;;;;;;;8.00;2.65;;;;;;;;;;4981058;28;20061;-74
2023/03/28 10:11:14;;;;;;;5.47;2.58;;;;;;;;;;4981019;28;20027;-71
2023/03/28 10:14:00;;;;;;;4.82;2.88;;;;;;;;;;4980043;28;20019;-71
2023/03/28 10:16:46;;;;;;;6.25;2.88;;;;;;;;;;4979779;28;20467;-72
2023/03/28 10:19:33;;;;;;;8.68;2.65;;;;;;;;;;4979679;28;20027;-72
2023/03/28 10:22:19;;;;;;;7.32;2.97;;;;;;;;;;4980285;28;20443;-71
2023/03/28 10:25:06;;;;;;;4.18;3.05;;;;;;;;;;4965183;28;20363;-72
2023/03/28 10:27:51;;;;;;;5.97;2.60;;;;;;;;;;4965664;28;20019;-73
2023/03/28 10:30:37;;;;;;;5.80;2.85;;;;;;;;;;4979882;28;20031;-72
2023/03/28 10:33:25;;;;;;;9.77;3.00;;;;;;;;;;4979656;28;20023;-72
2023/03/28 10:36:22;;;;;;;9.23;3.10;;;;;;;;;;4980165;28;20050;-74
2023/03/28 10:39:22;;;;;;;8.75;2.85;;;;;;;;;;4979771;28;20022;-73
2023/03/28 10:42:07;;;;;;;6.95;2.80;;;;;;;;;;4979328;28;20026;-73
2023/03/28 10:45:00;;;;;;;6.22;2.95;;;;;;;;;;4979577;28;20023;-72
2023/03/28 10:47:48;;;;;;;9.02;3.13;;;;;;;;;;4978891;28;20056;-74
2023/03/28 10:50:40;;;;;;;6.85;2.92;;;;;;;;;;4980114;28;20027;-73
2023/03/28 10:53:58;;;;;;;5.72;2.95;;;;;;;;;;4979167;28;20025;-74
2023/03/28 10:56:51;;;;;;;8.00;2.95;;;;;;;;;;4947356;28;20027;-72
2023/03/28 10:59:53;;;;;;;10.85;2.90;;;;;;;;;;4979474;28;20034;-72
2023/03/28 11:02:48;;;;;;;7.00;3.15;;;;;;;;;;4979103;28;20450;-73
2023/03/28 11:05:43;;;;;;;7.90;3.13;;;;;;;;;;4979747;28;20026;-73
2023/03/28 11:08:29;;;;;;;10.95;3.35;;;;;;;;;;4964839;28;20050;-73
2023/03/28 11:11:14;;;;;;;9.18;3.35;;;;;;;;;;4978652;28;20019;-73
2023/03/28 11:14:23;;;;;;;9.23;3.30;;;;;;;;;;4963833;28;20466;-77
2023/03/28 11:17:19;;;;;;;11.80;3.10;;;;;;;;;;4939752;28;20039;-71
2023/03/28 11:20:25;;;;;;;5.35;2.97;;;;;;;;;;4979168;28;20034;-73
2023/03/28 11:23:30;;;;;;;12.30;3.22;;;;;;;;;;4964852;28;20078;-73
2023/03/28 11:26:18;;;;;;;6.50;2.38;;;;;;;;;;4978976;28;20101;-71
2023/03/28 11:29:07;;;;;;;11.43;2.75;;;;;;;;;;4979004;28;20023;-72
2023/03/28 11:32:06;;;;;;;9.32;2.60;;;;;;;;;;4978948;28;20026;-72
2023/03/28 11:35:00;;;;;;;10.13;2.85;;;;;;;;;;4978678;28;20117;-71
2023/03/28 11:38:05;;;;;;;7.47;2.47;;;;;;;;;;4963816;28;20027;-72
2023/03/28 11:40:53;;;;;;;7.05;2.30;;;;;;;;;;4979313;28;20027;-73
2023/03/28 11:44:01;;;;;;;5.65;1.98;;;;;;;;;;4963018;28;20034;-72
2023/03/28 11:46:50;;;;;;;5.75;2.10;;;;;;;;;;4978796;28;20041;-72
2023/03/28 11:49:39;;;;;;;7.82;2.15;;;;;;;;;;4978270;28;20027;-72
2023/03/28 11:52:30;;;;;;;6.88;2.22;;;;;;;;;;4964045;28;20033;-72
2023/03/28 11:55:15;;;;;;;5.10;2.50;;;;;;;;;;4978603;28;20114;-72
2023/03/28 11:58:04;;;;;;;4.30;2.40;;;;;;;;;;4977928;28;20105;-72
2023/03/28 12:00:58;;;;;;;4.25;2.10;;;;;;;;;;4977688;28;20031;-72
2023/03/28 12:03:53;;;;;;;5.07;2.28;;;;;;;;;;4978505;28;20431;-72
2023/03/28 12:07:05;;;;;;;6.82;2.22;;;;;;;;;;4964269;28;20467;-75
2023/03/28 12:10:13;;;;;;;7.15;2.13;;;;;;;;;;4978736;28;20077;-74
2023/03/28 12:13:02;;;;;;;8.50;2.63;;;;;;;;;;4978611;28;20340;-74
2023/03/28 12:15:50;;;;;;;6.90;2.33;;;;;;;;;;4964591;28;20038;-73
2023/03/28 12:18:42;;;;;;;7.85;2.20;;;;;;;;;;4978281;28;20026;-75
2023/03/28 12:21:33;;;;;;;4.28;2.30;;;;;;;;;;4977373;28;20349;-73
2023/03/28 12:24:24;;;;;;;8.80;2.30;;;;;;;;;;4976998;28;20055;-75
2023/03/28 12:27:19;;;;;;;4.75;2.28;;;;;;;;;;4978843;28;20041;-72
2023/03/28 12:30:08;;;;;;;5.65;2.72;;;;;;;;;;4964051;28;20015;-73
2023/03/28 12:33:03;;;;;;;8.68;2.47;;;;;;;;;;4966904;28;20114;-72
2023/03/28 12:35:57;;;;;;;7.35;2.40;;;;;;;;;;4979721;28;20026;-73
2023/03/28 12:38:52;;;;;;;9.93;2.47;;;;;;;;;;4979275;28;20023;-74
2023/03/28 12:41:39;;;;;;;8.23;2.20;;;;;;;;;;4979132;28;20030;-73
2023/03/28 12:44:27;;;;;;;6.28;2.20;;;;;;;;;;4981401;28;20042;-74
2023/03/28 12:47:15;;;;;;;5.15;2.17;;;;;;;;;;4978048;28;20089;-75
2023/03/28 12:50:07;;;;;;;6.95;2.33;;;;;;;;;;4977618;28;20019;-74
2023/03/28 12:52:53;;;;;;;5.70;2.20;;;;;;;;;;4977974;28;20114;-74
2023/03/28 12:55:48;;;;;;;5.78;2.35;;;;;;;;;;4990912;28;20041;-74
2023/03/28 12:58:35;;;;;;;7.40;2.40;;;;;;;;;;4990969;28;20029;-75
2023/03/28 13:01:26;;;;;;;6.63;2.17;;;;;;;;;;4996911;28;20023;-75
2023/03/28 13:04:28;;;;;;;6.00;2.30;;;;;;;;;;4982375;28;20026;-75
2023/03/28 13:07:33;;;;;;;7.85;1.90;;;;;;;;;;4979224;28;20031;-75
2023/03/28 13:10:18;;;;;;;5.60;2.30;;;;;;;;;;4978946;28;20026;-74
2023/03/28 13:13:05;;;;;;;4.32;2.17;;;;;;;;;;4982178;28;20034;-76
2023/03/28 13:16:02;;;;;;;2.85;1.92;;;;;;;;;;4982311;28;20030;-74
2023/03/28 13:19:03;;;;;;;8.02;2.10;;;;;;;;;;4968233;28;20031;-74
2023/03/28 13:21:54;;;;;;;5.63;2.28;;;;;;;;;;4982074;28;20379;-73
2023/03/28 13:24:39;;;;;;;5.40;2.58;;;;;;;;;;4978946;28;20046;-74
2023/03/28 13:27:29;;;;;;;3.45;2.03;;;;;;;;;;4981014;28;20019;-75
2023/03/28 13:30:18;;;;;;;6.88;2.20;;;;;;;;;;4980641;28;20018;-75
2023/03/28 13:33:24;;;;;;;6.15;2.88;;;;;;;;;;4980695;28;20400;-73
2023/03/28 13:36:11;;;;;;;6.00;2.60;;;;;;;;;;4985846;28;20033;-73
2023/03/28 13:39:03;;;;;;;6.03;2.35;;;;;;;;;;4989166;28;20019;-75
2023/03/28 13:41:49;;;;;;;4.07;2.00;;;;;;;;;;4981311;28;20383;-73
2023/03/28 13:44:35;;;;;;;4.85;2.00;;;;;;;;;;4979939;28;20018;-73
2023/03/28 13:47:26;;;;;;;6.20;2.38;;;;;;;;;;4982202;28;20026;-73
2023/03/28 13:50:20;;;;;;;2.90;1.90;;;;;;;;;;4987804;28;20027;-73
2023/03/28 13:53:06;;;;;;;3.67;2.00;;;;;;;;;;4984821;28;20023;-73
2023/03/28 13:56:05;;;;;;;5.22;1.95;;;;;;;;;;4979956;28;20106;-73
2023/03/28 13:58:52;;;;;;;6.30;1.77;;;;;;;;;;4980360;28;20022;-73
2023/03/28 14:01:45;;;;;;;5.18;1.90;;;;;;;;;;4979430;28;20114;-74
2023/03/28 14:04:32;;;;;;;3.08;1.77;;;;;;;;;;4978902;28;20026;-74
2023/03/28 14:07:21;;;;;;;4.28;2.30;;;;;;;;;;4979326;28;20031;-74
2023/03/28 14:10:29;;;;;;;7.57;4.20;;;;;;;;;;4979607;28;20023;-75
2023/03/28 14:13:20;;;;;;;3.38;1.63;;;;;;;;;;4980391;28;20026;-74
2023/03/28 14:16:06;;;;;;;2.83;1.77;;;;;;;;;;4978416;28;20022;-73
2023/03/28 14:18:52;;;;;;;4.28;1.98;;;;;;;;;;4979673;28;20110;-76
2023/03/28 14:21:38;;;;;;;6.07;2.17;;;;;;;;;;4979219;28;20031;-74
2023/03/28 14:24:25;;;;;;;4.13;1.80;;;;;;;;;;4977903;28;20391;-74
2023/03/28 14:27:15;;;;;;;5.45;2.22;;;;;;;;;;4978927;28;20023;-75
2023/03/28 14:30:01;;;;;;;4.72;2.30;;;;;;;;;;4979665;28;20046;-73
2023/03/28 14:32:58;;;;;;;8.27;3.72;;;;;;;;;;4978125;28;20098;-72
2023/03/28 14:35:54;;;;;;;8.10;4.50;;;;;;;;;;4977931;28;20102;-74
2023/03/28 14:38:41;;;;;;;6.20;3.25;;;;;;;;;;4979042;28;20406;-73
2023/03/28 14:41:28;;;;;;;10.52;3.60;;;;;;;;;;4978867;28;20038;-74
2023/03/28 14:44:15;;;;;;;5.68;3.35;;;;;;;;;;4977259;28;20438;-74
2023/03/28 14:47:00;;;;;;;8.23;4.28;;;;;;;;;;4978649;28;20030;-73
2023/03/28 14:49:46;;;;;;;11.00;4.82;;;;;;;;;;4978550;28;20023;-73
2023/03/28 14:52:35;;;;;;;6.97;4.78;;;;;;;;;;4978497;28;20385;-73
2023/03/28 14:55:22;;;;;;;9.70;4.70;;;;;;;;;;4977323;28;20031;-73
2023/03/28 14:58:10;;;;;;;5.70;4.15;;;;;;;;;;4977537;28;20031;-74
2023/03/28 15:01:00;;;;;;;8.95;5.47;;;;;;;;;;4977426;28;20089;-74
2023/03/28 15:03:46;;;;;;;8.00;5.47;;;;;;;;;;4977277;28;20494;-74
2023/03/28 15:06:33;;;;;;;8.32;6.35;;;;;;;;;;4977030;28;20034;-74
2023/03/28 15:09:30;;;;;;;11.23;5.57;;;;;;;;;;4978881;28;20058;-74
2023/03/28 15:12:16;;;;;;;8.70;5.80;;;;;;;;;;4976688;28;20336;-74
2023/03/28 15:15:02;;;;;;;9.90;6.57;;;;;;;;;;4978417;28;20462;-73
2023/03/28 15:17:49;;;;;;;9.50;5.53;;;;;;;;;;4978213;28;20359;-75
2023/03/28 15:20:37;;;;;;;7.13;4.53;;;;;;;;;;4977773;28;20029;-74
2023/03/28 15:23:22;;;;;;;6.60;4.13;;;;;;;;;;4988208;28;20085;-74
2023/03/28 15:26:15;;;;;;;7.45;4.85;;;;;;;;;;4997215;28;20061;-75
2023/03/28 15:29:01;;;;;;;11.13;4.15;;;;;;;;;;4984062;28;20026;-74
2023/03/28 15:31:47;;;;;;;8.13;3.75;;;;;;;;;;4983644;28;20105;-74
2023/03/28 15:34:42;;;;;;;7.00;3.50;;;;;;;;;;4967719;28;20416;-73
2023/03/28 15:37:27;;;;;;;5.45;3.13;;;;;;;;;;4998183;28;20023;-76
2023/03/28 15:40:23;;;;;;;13.18;4.38;;;;;;;;;;4982259;28;20101;-75
2023/03/28 15:43:28;;;;;;;6.15;3.60;;;;;;;;;;4996594;28;20026;-75
2023/03/28 15:46:13;;;;;;;5.72;2.90;;;;;;;;;;4996495;28;20403;-76
2023/03/28 15:49:00;;;;;;;7.28;3.30;;;;;;;;;;4998465;28;20088;-74
2023/03/28 15:51:58;;;;;;;9.45;3.53;;;;;;;;;;5000022;28;20018;-74
2023/03/28 15:54:47;;;;;;;5.80;3.30;;;;;;;;;;4985505;28;20022;-75
2023/03/28 15:57:33;;;;;;;9.63;3.85;;;;;;;;;;4999779;28;20030;-74
2023/03/28 16:00:33;;;;;;;8.07;4.25;;;;;;;;;;4999830;28;20022;-74
2023/03/28 16:03:19;;;;;;;6.63;4.20;;;;;;;;;;4998856;28;20045;-75
2023/03/28 16:06:17;;;;;;;6.38;3.22;;;;;;;;;;4998564;28;20106;-74
2023/03/28 16:09:13;;;;;;;7.75;3.90;;;;;;;;;;4998271;28;20022;-74
2023/03/28 16:12:01;;;;;;;6.85;4.13;;;;;;;;;;4996340;28;20113;-73
2023/03/28 16:14:49;;;;;;;5.75;3.58;;;;;;;;;;4997110;28;20026;-73
2023/03/28 16:17:35;;;;;;;9.23;3.80;;;;;;;;;;4996879;28;20108;-77
2023/03/28 16:20:22;;;;;;;8.02;4.03;;;;;;;;;;5000171;28;20033;-75
2023/03/28 16:23:07;;;;;;;5.47;3.70;;;;;;;;;;5010432;28;20034;-75
2023/03/28 16:25:53;;;;;;;6.90;3.50;;;;;;;;;;5002493;28;20030;-74
2023/03/28 16:28:39;;;;;;;7.60;3.25;;;;;;;;;;4996022;28;20026;-75
2023/03/28 16:31:26;;;;;;;18.75;3.85;;;;;;;;;;4997849;28;20014;-75
2023/03/28 16:34:11;;;;;;;8.07;2.75;;;;;;;;;;4996523;28;20018;-72
2023/03/28 16:36:57;;;;;;;5.88;3.20;;;;;;;;;;4982269;28;20033;-73
2023/03/28 16:39:43;;;;;;;6.45;3.53;;;;;;;;;;4981682;28;20433;-73
2023/03/28 16:42:29;;;;;;;9.82;4.68;;;;;;;;;;4998676;28;20018;-72
2023/03/28 16:45:15;;;;;;;5.70;4.20;;;;;;;;;;5001650;28;20030;-72
2023/03/28 16:48:01;;;;;;;8.30;5.20;;;;;;;;;;4999199;28;20096;-75
2023/03/28 16:50:57;;;;;;;6.63;4.43;;;;;;;;;;5004129;28;20038;-73